sensor_id;sensor_type;location;lat;lon;timestamp;P1;durP1;ratioP1;P2;durP2;ratioP2
56381;SDS011;50261;51.150;4.470;2022-07-18T00:00:06;5.00;;;1.63;;
56381;SDS011;50261;51.150;4.470;2022-07-18T00:02:32;5.70;;;1.63;;
56381;SDS011;50261;51.150;4.470;2022-07-18T00:04:58;5.60;;;2.35;;
56381;SDS011;50261;51.150;4.470;2022-07-18T00:07:23;2.70;;;1.73;;
56381;SDS011;50261;51.150;4.470;2022-07-18T00:09:49;3.72;;;1.73;;
56381;SDS011;50261;51.150;4.470;2022-07-18T00:12:15;5.93;;;1.50;;
56381;SDS011;50261;51.150;4.470;2022-07-18T00:14:41;4.13;;;1.83;;
56381;SDS011;50261;51.150;4.470;2022-07-18T00:17:07;6.20;;;1.73;;
56381;SDS011;50261;51.150;4.470;2022-07-18T00:19:33;3.60;;;1.50;;
56381;SDS011;50261;51.150;4.470;2022-07-18T00:21:59;5.68;;;1.45;;
56381;SDS011;50261;51.150;4.470;2022-07-18T00:24:26;4.15;;;1.38;;
56381;SDS011;50261;51.150;4.470;2022-07-18T00:26:52;6.03;;;1.90;;
56381;SDS011;50261;51.150;4.470;2022-07-18T00:29:18;3.30;;;1.63;;
56381;SDS011;50261;51.150;4.470;2022-07-18T00:31:43;3.30;;;1.90;;
56381;SDS011;50261;51.150;4.470;2022-07-18T00:34:09;5.03;;;1.42;;
56381;SDS011;50261;51.150;4.470;2022-07-18T00:36:35;5.68;;;1.85;;
56381;SDS011;50261;51.150;4.470;2022-07-18T00:39:00;5.25;;;1.88;;
56381;SDS011;50261;51.150;4.470;2022-07-18T00:41:26;6.03;;;1.58;;
56381;SDS011;50261;51.150;4.470;2022-07-18T00:43:52;2.78;;;1.70;;
56381;SDS011;50261;51.150;4.470;2022-07-18T00:46:25;4.57;;;1.50;;
56381;SDS011;50261;51.150;4.470;2022-07-18T00:48:51;5.13;;;1.90;;
56381;SDS011;50261;51.150;4.470;2022-07-18T00:51:17;7.93;;;2.00;;
56381;SDS011;50261;51.150;4.470;2022-07-18T00:53:44;8.45;;;4.93;;
56381;SDS011;50261;51.150;4.470;2022-07-18T00:56:09;6.38;;;2.33;;
56381;SDS011;50261;51.150;4.470;2022-07-18T00:58:35;4.53;;;1.75;;
56381;SDS011;50261;51.150;4.470;2022-07-18T01:01:02;3.75;;;1.92;;
56381;SDS011;50261;51.150;4.470;2022-07-18T01:03:46;4.72;;;1.67;;
56381;SDS011;50261;51.150;4.470;2022-07-18T01:06:12;5.72;;;2.22;;
56381;SDS011;50261;51.150;4.470;2022-07-18T01:08:37;4.18;;;1.98;;
56381;SDS011;50261;51.150;4.470;2022-07-18T01:11:04;7.28;;;1.90;;
56381;SDS011;50261;51.150;4.470;2022-07-18T01:13:30;3.65;;;1.85;;
56381;SDS011;50261;51.150;4.470;2022-07-18T01:15:56;3.10;;;1.63;;
56381;SDS011;50261;51.150;4.470;2022-07-18T01:18:22;4.93;;;2.03;;
56381;SDS011;50261;51.150;4.470;2022-07-18T01:20:47;5.78;;;1.52;;
56381;SDS011;50261;51.150;4.470;2022-07-18T01:23:13;4.75;;;1.50;;
56381;SDS011;50261;51.150;4.470;2022-07-18T01:25:39;6.72;;;2.10;;
56381;SDS011;50261;51.150;4.470;2022-07-18T01:28:04;4.85;;;2.15;;
56381;SDS011;50261;51.150;4.470;2022-07-18T01:30:30;3.70;;;1.90;;
56381;SDS011;50261;51.150;4.470;2022-07-18T01:32:59;4.07;;;1.52;;
56381;SDS011;50261;51.150;4.470;2022-07-18T01:35:26;4.32;;;1.75;;
56381;SDS011;50261;51.150;4.470;2022-07-18T01:37:53;5.88;;;1.80;;
56381;SDS011;50261;51.150;4.470;2022-07-18T01:40:18;3.55;;;1.83;;
56381;SDS011;50261;51.150;4.470;2022-07-18T01:42:44;4.05;;;1.90;;
56381;SDS011;50261;51.150;4.470;2022-07-18T01:45:10;5.07;;;2.00;;
56381;SDS011;50261;51.150;4.470;2022-07-18T01:47:36;3.88;;;1.70;;
56381;SDS011;50261;51.150;4.470;2022-07-18T01:50:02;3.20;;;1.95;;
56381;SDS011;50261;51.150;4.470;2022-07-18T01:52:27;4.47;;;2.33;;
56381;SDS011;50261;51.150;4.470;2022-07-18T01:54:53;6.45;;;2.03;;
56381;SDS011;50261;51.150;4.470;2022-07-18T01:57:19;7.53;;;2.30;;
56381;SDS011;50261;51.150;4.470;2022-07-18T01:59:44;5.45;;;2.00;;
56381;SDS011;50261;51.150;4.470;2022-07-18T02:02:10;8.45;;;2.05;;
56381;SDS011;50261;51.150;4.470;2022-07-18T02:04:36;6.38;;;1.85;;
56381;SDS011;50261;51.150;4.470;2022-07-18T02:07:20;5.25;;;1.80;;
56381;SDS011;50261;51.150;4.470;2022-07-18T02:09:47;4.70;;;1.85;;
56381;SDS011;50261;51.150;4.470;2022-07-18T02:12:13;4.65;;;1.90;;
56381;SDS011;50261;51.150;4.470;2022-07-18T02:14:38;4.38;;;2.10;;
56381;SDS011;50261;51.150;4.470;2022-07-18T02:17:04;5.90;;;2.25;;
56381;SDS011;50261;51.150;4.470;2022-07-18T02:19:30;10.15;;;2.30;;
56381;SDS011;50261;51.150;4.470;2022-07-18T02:21:56;5.45;;;2.03;;
56381;SDS011;50261;51.150;4.470;2022-07-18T02:24:21;4.90;;;1.85;;
56381;SDS011;50261;51.150;4.470;2022-07-18T02:26:47;6.68;;;1.98;;
56381;SDS011;50261;51.150;4.470;2022-07-18T02:29:13;5.97;;;2.38;;
56381;SDS011;50261;51.150;4.470;2022-07-18T02:31:38;5.65;;;2.00;;
56381;SDS011;50261;51.150;4.470;2022-07-18T02:34:04;4.68;;;1.95;;
56381;SDS011;50261;51.150;4.470;2022-07-18T02:36:38;4.00;;;1.90;;
56381;SDS011;50261;51.150;4.470;2022-07-18T02:39:05;3.35;;;1.77;;
56381;SDS011;50261;51.150;4.470;2022-07-18T02:41:30;6.72;;;1.88;;
56381;SDS011;50261;51.150;4.470;2022-07-18T02:43:56;6.38;;;2.10;;
56381;SDS011;50261;51.150;4.470;2022-07-18T02:46:22;7.55;;;2.10;;
56381;SDS011;50261;51.150;4.470;2022-07-18T02:48:48;4.60;;;2.15;;
56381;SDS011;50261;51.150;4.470;2022-07-18T02:51:13;5.57;;;2.20;;
56381;SDS011;50261;51.150;4.470;2022-07-18T02:53:39;5.63;;;2.30;;
56381;SDS011;50261;51.150;4.470;2022-07-18T02:56:05;5.57;;;2.30;;
56381;SDS011;50261;51.150;4.470;2022-07-18T02:58:30;4.53;;;2.45;;
56381;SDS011;50261;51.150;4.470;2022-07-18T03:00:57;6.45;;;2.30;;
56381;SDS011;50261;51.150;4.470;2022-07-18T03:03:23;3.13;;;1.95;;
56381;SDS011;50261;51.150;4.470;2022-07-18T03:05:49;5.28;;;2.22;;
56381;SDS011;50261;51.150;4.470;2022-07-18T03:08:14;7.13;;;2.28;;
56381;SDS011;50261;51.150;4.470;2022-07-18T03:10:40;5.90;;;2.08;;
56381;SDS011;50261;51.150;4.470;2022-07-18T03:13:06;6.70;;;2.30;;
56381;SDS011;50261;51.150;4.470;2022-07-18T03:15:31;8.52;;;2.22;;
56381;SDS011;50261;51.150;4.470;2022-07-18T03:17:57;5.28;;;2.33;;
56381;SDS011;50261;51.150;4.470;2022-07-18T03:20:23;4.60;;;2.58;;
56381;SDS011;50261;51.150;4.470;2022-07-18T03:22:48;3.88;;;2.53;;
56381;SDS011;50261;51.150;4.470;2022-07-18T03:25:14;5.70;;;2.30;;
56381;SDS011;50261;51.150;4.470;2022-07-18T03:27:40;7.30;;;2.30;;
56381;SDS011;50261;51.150;4.470;2022-07-18T03:30:05;5.30;;;2.15;;
56381;SDS011;50261;51.150;4.470;2022-07-18T03:32:31;5.45;;;2.20;;
56381;SDS011;50261;51.150;4.470;2022-07-18T03:34:57;6.05;;;2.30;;
56381;SDS011;50261;51.150;4.470;2022-07-18T03:37:22;3.88;;;2.00;;
56381;SDS011;50261;51.150;4.470;2022-07-18T03:39:48;4.22;;;2.10;;
56381;SDS011;50261;51.150;4.470;2022-07-18T03:42:14;3.88;;;2.00;;
56381;SDS011;50261;51.150;4.470;2022-07-18T03:44:39;4.88;;;2.42;;
56381;SDS011;50261;51.150;4.470;2022-07-18T03:47:05;4.45;;;2.60;;
56381;SDS011;50261;51.150;4.470;2022-07-18T03:49:31;6.50;;;2.15;;
56381;SDS011;50261;51.150;4.470;2022-07-18T03:51:57;5.47;;;2.08;;
56381;SDS011;50261;51.150;4.470;2022-07-18T03:54:22;4.38;;;2.22;;
56381;SDS011;50261;51.150;4.470;2022-07-18T03:56:49;6.35;;;2.22;;
56381;SDS011;50261;51.150;4.470;2022-07-18T03:59:14;3.70;;;2.15;;
56381;SDS011;50261;51.150;4.470;2022-07-18T04:01:40;4.93;;;2.50;;
56381;SDS011;50261;51.150;4.470;2022-07-18T04:04:06;5.95;;;2.70;;
56381;SDS011;50261;51.150;4.470;2022-07-18T04:06:32;3.97;;;2.70;;
56381;SDS011;50261;51.150;4.470;2022-07-18T04:08:57;5.03;;;3.00;;
56381;SDS011;50261;51.150;4.470;2022-07-18T04:11:23;7.75;;;2.72;;
56381;SDS011;50261;51.150;4.470;2022-07-18T04:13:51;4.88;;;2.55;;
56381;SDS011;50261;51.150;4.470;2022-07-18T04:16:17;8.27;;;2.90;;
56381;SDS011;50261;51.150;4.470;2022-07-18T04:18:43;5.55;;;2.63;;
56381;SDS011;50261;51.150;4.470;2022-07-18T04:21:08;5.18;;;2.75;;
56381;SDS011;50261;51.150;4.470;2022-07-18T04:23:34;5.95;;;2.70;;
56381;SDS011;50261;51.150;4.470;2022-07-18T04:26:00;9.52;;;2.63;;
56381;SDS011;50261;51.150;4.470;2022-07-18T04:28:26;7.63;;;2.40;;
56381;SDS011;50261;51.150;4.470;2022-07-18T04:30:52;7.82;;;2.75;;
56381;SDS011;50261;51.150;4.470;2022-07-18T04:33:18;5.15;;;2.58;;
56381;SDS011;50261;51.150;4.470;2022-07-18T04:35:44;7.28;;;2.60;;
56381;SDS011;50261;51.150;4.470;2022-07-18T04:38:10;9.73;;;2.80;;
56381;SDS011;50261;51.150;4.470;2022-07-18T04:40:36;7.85;;;2.50;;
56381;SDS011;50261;51.150;4.470;2022-07-18T04:43:02;6.10;;;2.75;;
56381;SDS011;50261;51.150;4.470;2022-07-18T04:45:28;8.93;;;2.58;;
56381;SDS011;50261;51.150;4.470;2022-07-18T04:47:53;6.72;;;2.42;;
56381;SDS011;50261;51.150;4.470;2022-07-18T04:50:20;9.80;;;3.03;;
56381;SDS011;50261;51.150;4.470;2022-07-18T04:52:47;6.88;;;2.60;;
56381;SDS011;50261;51.150;4.470;2022-07-18T04:55:14;4.82;;;2.72;;
56381;SDS011;50261;51.150;4.470;2022-07-18T04:57:40;9.25;;;3.08;;
56381;SDS011;50261;51.150;4.470;2022-07-18T05:00:07;7.07;;;2.50;;
56381;SDS011;50261;51.150;4.470;2022-07-18T05:02:33;5.10;;;2.70;;
56381;SDS011;50261;51.150;4.470;2022-07-18T05:04:59;7.53;;;3.00;;
56381;SDS011;50261;51.150;4.470;2022-07-18T05:07:25;10.80;;;2.90;;
56381;SDS011;50261;51.150;4.470;2022-07-18T05:09:50;5.88;;;2.83;;
56381;SDS011;50261;51.150;4.470;2022-07-18T05:12:16;9.63;;;2.70;;
56381;SDS011;50261;51.150;4.470;2022-07-18T05:14:44;8.43;;;2.90;;
56381;SDS011;50261;51.150;4.470;2022-07-18T05:17:09;6.10;;;2.78;;
56381;SDS011;50261;51.150;4.470;2022-07-18T05:19:35;5.60;;;2.50;;
56381;SDS011;50261;51.150;4.470;2022-07-18T05:22:01;12.10;;;3.75;;
56381;SDS011;50261;51.150;4.470;2022-07-18T05:24:26;5.60;;;2.55;;
56381;SDS011;50261;51.150;4.470;2022-07-18T05:26:52;7.18;;;2.53;;
56381;SDS011;50261;51.150;4.470;2022-07-18T05:29:18;9.15;;;2.80;;
56381;SDS011;50261;51.150;4.470;2022-07-18T05:31:43;6.40;;;2.97;;
56381;SDS011;50261;51.150;4.470;2022-07-18T05:34:09;6.13;;;2.50;;
56381;SDS011;50261;51.150;4.470;2022-07-18T05:36:35;5.65;;;2.63;;
56381;SDS011;50261;51.150;4.470;2022-07-18T05:39:01;9.90;;;2.83;;
56381;SDS011;50261;51.150;4.470;2022-07-18T05:41:26;12.75;;;2.90;;
56381;SDS011;50261;51.150;4.470;2022-07-18T05:43:52;6.97;;;3.00;;
56381;SDS011;50261;51.150;4.470;2022-07-18T05:46:17;4.93;;;2.67;;
56381;SDS011;50261;51.150;4.470;2022-07-18T05:48:43;5.55;;;3.00;;
56381;SDS011;50261;51.150;4.470;2022-07-18T05:51:09;8.27;;;3.10;;
56381;SDS011;50261;51.150;4.470;2022-07-18T05:53:35;6.30;;;2.70;;
56381;SDS011;50261;51.150;4.470;2022-07-18T05:56:01;7.28;;;2.92;;
56381;SDS011;50261;51.150;4.470;2022-07-18T05:58:26;10.13;;;3.50;;
56381;SDS011;50261;51.150;4.470;2022-07-18T06:00:52;8.85;;;3.22;;
56381;SDS011;50261;51.150;4.470;2022-07-18T06:03:17;10.45;;;3.25;;
56381;SDS011;50261;51.150;4.470;2022-07-18T06:05:43;11.02;;;3.60;;
56381;SDS011;50261;51.150;4.470;2022-07-18T06:08:08;10.77;;;3.40;;
56381;SDS011;50261;51.150;4.470;2022-07-18T06:10:34;5.20;;;3.25;;
56381;SDS011;50261;51.150;4.470;2022-07-18T06:12:59;5.97;;;3.30;;
56381;SDS011;50261;51.150;4.470;2022-07-18T06:15:25;7.93;;;3.50;;
56381;SDS011;50261;51.150;4.470;2022-07-18T06:17:51;7.22;;;3.08;;
56381;SDS011;50261;51.150;4.470;2022-07-18T06:20:17;5.47;;;3.08;;
56381;SDS011;50261;51.150;4.470;2022-07-18T06:22:42;7.70;;;3.38;;
56381;SDS011;50261;51.150;4.470;2022-07-18T06:25:08;11.65;;;3.65;;
56381;SDS011;50261;51.150;4.470;2022-07-18T06:27:33;5.70;;;3.13;;
56381;SDS011;50261;51.150;4.470;2022-07-18T06:30:00;9.02;;;3.15;;
56381;SDS011;50261;51.150;4.470;2022-07-18T06:32:29;10.18;;;3.35;;
56381;SDS011;50261;51.150;4.470;2022-07-18T06:34:54;7.82;;;3.30;;
56381;SDS011;50261;51.150;4.470;2022-07-18T06:37:20;4.70;;;2.85;;
56381;SDS011;50261;51.150;4.470;2022-07-18T06:39:46;7.10;;;2.80;;
56381;SDS011;50261;51.150;4.470;2022-07-18T06:42:11;6.00;;;3.20;;
56381;SDS011;50261;51.150;4.470;2022-07-18T06:44:40;8.15;;;2.97;;
56381;SDS011;50261;51.150;4.470;2022-07-18T06:47:06;6.60;;;3.78;;
56381;SDS011;50261;51.150;4.470;2022-07-18T06:49:31;7.07;;;3.22;;
56381;SDS011;50261;51.150;4.470;2022-07-18T06:51:57;8.40;;;3.00;;
56381;SDS011;50261;51.150;4.470;2022-07-18T06:54:23;10.32;;;2.85;;
56381;SDS011;50261;51.150;4.470;2022-07-18T06:56:53;5.80;;;3.08;;
56381;SDS011;50261;51.150;4.470;2022-07-18T06:59:19;10.80;;;2.55;;
56381;SDS011;50261;51.150;4.470;2022-07-18T07:01:45;10.52;;;3.08;;
56381;SDS011;50261;51.150;4.470;2022-07-18T07:04:10;9.32;;;3.30;;
56381;SDS011;50261;51.150;4.470;2022-07-18T07:06:36;7.60;;;2.90;;
56381;SDS011;50261;51.150;4.470;2022-07-18T07:09:04;10.40;;;3.17;;
56381;SDS011;50261;51.150;4.470;2022-07-18T07:11:30;6.90;;;3.67;;
56381;SDS011;50261;51.150;4.470;2022-07-18T07:13:55;7.57;;;2.65;;
56381;SDS011;50261;51.150;4.470;2022-07-18T07:16:21;5.68;;;2.80;;
56381;SDS011;50261;51.150;4.470;2022-07-18T07:18:47;10.55;;;3.33;;
56381;SDS011;50261;51.150;4.470;2022-07-18T07:21:12;7.60;;;2.83;;
56381;SDS011;50261;51.150;4.470;2022-07-18T07:23:38;6.30;;;2.60;;
56381;SDS011;50261;51.150;4.470;2022-07-18T07:26:06;6.82;;;2.75;;
56381;SDS011;50261;51.150;4.470;2022-07-18T07:28:31;7.10;;;2.72;;
56381;SDS011;50261;51.150;4.470;2022-07-18T07:30:57;5.75;;;2.63;;
56381;SDS011;50261;51.150;4.470;2022-07-18T07:33:23;6.05;;;2.65;;
56381;SDS011;50261;51.150;4.470;2022-07-18T07:35:49;6.10;;;2.92;;
56381;SDS011;50261;51.150;4.470;2022-07-18T07:38:14;7.93;;;2.70;;
56381;SDS011;50261;51.150;4.470;2022-07-18T07:40:43;12.57;;;3.03;;
56381;SDS011;50261;51.150;4.470;2022-07-18T07:43:10;9.95;;;3.00;;
56381;SDS011;50261;51.150;4.470;2022-07-18T07:45:36;6.00;;;2.72;;
56381;SDS011;50261;51.150;4.470;2022-07-18T07:48:02;8.23;;;2.92;;
56381;SDS011;50261;51.150;4.470;2022-07-18T07:50:28;9.02;;;2.90;;
56381;SDS011;50261;51.150;4.470;2022-07-18T07:52:55;5.32;;;2.92;;
56381;SDS011;50261;51.150;4.470;2022-07-18T07:55:21;7.82;;;2.38;;
56381;SDS011;50261;51.150;4.470;2022-07-18T07:57:47;6.65;;;2.92;;
56381;SDS011;50261;51.150;4.470;2022-07-18T08:00:13;7.25;;;2.40;;
56381;SDS011;50261;51.150;4.470;2022-07-18T08:02:49;6.80;;;2.85;;
56381;SDS011;50261;51.150;4.470;2022-07-18T08:05:15;8.93;;;2.53;;
56381;SDS011;50261;51.150;4.470;2022-07-18T08:07:41;11.68;;;2.95;;
56381;SDS011;50261;51.150;4.470;2022-07-18T08:10:07;5.43;;;2.30;;
56381;SDS011;50261;51.150;4.470;2022-07-18T08:12:33;5.72;;;2.47;;
56381;SDS011;50261;51.150;4.470;2022-07-18T08:14:58;7.70;;;2.25;;
56381;SDS011;50261;51.150;4.470;2022-07-18T08:17:24;7.53;;;2.42;;
56381;SDS011;50261;51.150;4.470;2022-07-18T08:19:50;4.47;;;2.13;;
56381;SDS011;50261;51.150;4.470;2022-07-18T08:22:15;6.82;;;2.10;;
56381;SDS011;50261;51.150;4.470;2022-07-18T08:24:43;9.65;;;2.45;;
56381;SDS011;50261;51.150;4.470;2022-07-18T08:27:08;8.90;;;2.53;;
56381;SDS011;50261;51.150;4.470;2022-07-18T08:29:34;5.60;;;2.10;;
56381;SDS011;50261;51.150;4.470;2022-07-18T08:32:00;4.20;;;2.05;;
56381;SDS011;50261;51.150;4.470;2022-07-18T08:34:26;6.60;;;2.30;;
56381;SDS011;50261;51.150;4.470;2022-07-18T08:36:52;8.80;;;2.03;;
56381;SDS011;50261;51.150;4.470;2022-07-18T08:39:17;6.45;;;2.10;;
56381;SDS011;50261;51.150;4.470;2022-07-18T08:41:44;4.45;;;2.13;;
56381;SDS011;50261;51.150;4.470;2022-07-18T08:44:12;11.77;;;2.35;;
56381;SDS011;50261;51.150;4.470;2022-07-18T08:46:39;5.78;;;2.00;;
56381;SDS011;50261;51.150;4.470;2022-07-18T08:49:06;8.48;;;2.22;;
56381;SDS011;50261;51.150;4.470;2022-07-18T08:51:32;7.80;;;2.28;;
56381;SDS011;50261;51.150;4.470;2022-07-18T08:53:58;9.63;;;2.08;;
56381;SDS011;50261;51.150;4.470;2022-07-18T08:56:24;4.85;;;2.05;;
56381;SDS011;50261;51.150;4.470;2022-07-18T08:58:50;9.65;;;2.13;;
56381;SDS011;50261;51.150;4.470;2022-07-18T09:01:16;9.18;;;2.20;;
56381;SDS011;50261;51.150;4.470;2022-07-18T09:03:41;7.10;;;2.60;;
56381;SDS011;50261;51.150;4.470;2022-07-18T09:08:32;3.35;;;1.58;;
56381;SDS011;50261;51.150;4.470;2022-07-18T09:10:59;4.40;;;1.73;;
56381;SDS011;50261;51.150;4.470;2022-07-18T09:13:29;6.32;;;1.88;;
56381;SDS011;50261;51.150;4.470;2022-07-18T09:16:01;6.30;;;1.73;;
56381;SDS011;50261;51.150;4.470;2022-07-18T09:18:28;7.15;;;1.88;;
56381;SDS011;50261;51.150;4.470;2022-07-18T09:21:27;4.38;;;1.90;;
56381;SDS011;50261;51.150;4.470;2022-07-18T09:23:47;6.57;;;2.00;;
56381;SDS011;50261;51.150;4.470;2022-07-18T09:29:00;5.30;;;2.00;;
56381;SDS011;50261;51.150;4.470;2022-07-18T09:31:26;5.53;;;1.70;;
56381;SDS011;50261;51.150;4.470;2022-07-18T09:33:55;7.55;;;1.90;;
56381;SDS011;50261;51.150;4.470;2022-07-18T09:36:21;6.55;;;1.58;;
56381;SDS011;50261;51.150;4.470;2022-07-18T09:38:47;7.95;;;2.25;;
56381;SDS011;50261;51.150;4.470;2022-07-18T09:41:13;5.60;;;2.05;;
56381;SDS011;50261;51.150;4.470;2022-07-18T09:43:39;6.30;;;1.67;;
56381;SDS011;50261;51.150;4.470;2022-07-18T09:46:05;5.55;;;1.88;;
56381;SDS011;50261;51.150;4.470;2022-07-18T09:48:31;2.65;;;1.38;;
56381;SDS011;50261;51.150;4.470;2022-07-18T09:51:04;5.15;;;1.98;;
56381;SDS011;50261;51.150;4.470;2022-07-18T09:53:37;6.57;;;1.60;;
56381;SDS011;50261;51.150;4.470;2022-07-18T09:56:07;6.13;;;2.35;;
56381;SDS011;50261;51.150;4.470;2022-07-18T09:58:34;4.93;;;1.88;;
56381;SDS011;50261;51.150;4.470;2022-07-18T10:01:00;7.65;;;1.50;;
56381;SDS011;50261;51.150;4.470;2022-07-18T10:03:26;5.13;;;1.83;;
56381;SDS011;50261;51.150;4.470;2022-07-18T10:05:53;7.95;;;2.17;;
56381;SDS011;50261;51.150;4.470;2022-07-18T10:08:20;5.00;;;1.88;;
56381;SDS011;50261;51.150;4.470;2022-07-18T10:10:47;6.30;;;1.75;;
56381;SDS011;50261;51.150;4.470;2022-07-18T10:13:13;7.50;;;1.85;;
56381;SDS011;50261;51.150;4.470;2022-07-18T10:15:41;5.78;;;1.77;;
56381;SDS011;50261;51.150;4.470;2022-07-18T10:18:08;4.38;;;1.80;;
56381;SDS011;50261;51.150;4.470;2022-07-18T10:20:42;3.33;;;1.70;;
56381;SDS011;50261;51.150;4.470;2022-07-18T10:23:12;5.00;;;2.00;;
56381;SDS011;50261;51.150;4.470;2022-07-18T10:25:38;5.82;;;2.10;;
56381;SDS011;50261;51.150;4.470;2022-07-18T10:28:05;7.13;;;1.98;;
56381;SDS011;50261;51.150;4.470;2022-07-18T10:32:57;7.50;;;1.92;;
56381;SDS011;50261;51.150;4.470;2022-07-18T10:35:57;6.45;;;1.88;;
56381;SDS011;50261;51.150;4.470;2022-07-18T10:38:20;6.32;;;1.73;;
56381;SDS011;50261;51.150;4.470;2022-07-18T10:41:00;6.43;;;2.05;;
56381;SDS011;50261;51.150;4.470;2022-07-18T10:45:58;3.25;;;1.90;;
56381;SDS011;50261;51.150;4.470;2022-07-18T10:51:07;7.03;;;1.88;;
56381;SDS011;50261;51.150;4.470;2022-07-18T10:56:17;6.93;;;2.15;;
56381;SDS011;50261;51.150;4.470;2022-07-18T10:58:43;3.33;;;1.70;;
56381;SDS011;50261;51.150;4.470;2022-07-18T11:01:13;4.35;;;1.65;;
56381;SDS011;50261;51.150;4.470;2022-07-18T11:03:40;3.47;;;1.58;;
56381;SDS011;50261;51.150;4.470;2022-07-18T11:06:06;5.20;;;1.60;;
56381;SDS011;50261;51.150;4.470;2022-07-18T11:08:32;20.58;;;3.60;;
56381;SDS011;50261;51.150;4.470;2022-07-18T11:15:57;3.58;;;1.77;;
56381;SDS011;50261;51.150;4.470;2022-07-18T11:18:24;2.65;;;1.70;;
56381;SDS011;50261;51.150;4.470;2022-07-18T11:20:51;9.20;;;1.77;;
56381;SDS011;50261;51.150;4.470;2022-07-18T11:23:24;3.03;;;1.58;;
56381;SDS011;50261;51.150;4.470;2022-07-18T11:25:53;4.05;;;1.60;;
56381;SDS011;50261;51.150;4.470;2022-07-18T11:28:23;5.27;;;2.10;;
56381;SDS011;50261;51.150;4.470;2022-07-18T11:30:58;3.85;;;1.75;;
56381;SDS011;50261;51.150;4.470;2022-07-18T11:33:25;8.70;;;2.17;;
56381;SDS011;50261;51.150;4.470;2022-07-18T11:35:51;6.13;;;1.90;;
56381;SDS011;50261;51.150;4.470;2022-07-18T11:38:17;6.97;;;2.10;;
56381;SDS011;50261;51.150;4.470;2022-07-18T11:40:49;4.47;;;1.85;;
56381;SDS011;50261;51.150;4.470;2022-07-18T11:43:19;2.17;;;1.73;;
56381;SDS011;50261;51.150;4.470;2022-07-18T11:45:45;2.70;;;1.30;;
56381;SDS011;50261;51.150;4.470;2022-07-18T11:48:11;3.50;;;1.60;;
56381;SDS011;50261;51.150;4.470;2022-07-18T11:50:37;2.97;;;1.60;;
56381;SDS011;50261;51.150;4.470;2022-07-18T11:53:02;3.33;;;1.70;;
56381;SDS011;50261;51.150;4.470;2022-07-18T11:55:35;6.13;;;1.65;;
56381;SDS011;50261;51.150;4.470;2022-07-18T11:58:07;7.72;;;1.90;;
56381;SDS011;50261;51.150;4.470;2022-07-18T12:03:15;2.70;;;1.60;;
56381;SDS011;50261;51.150;4.470;2022-07-18T12:13:39;2.75;;;1.80;;
56381;SDS011;50261;51.150;4.470;2022-07-18T12:16:05;2.60;;;1.60;;
56381;SDS011;50261;51.150;4.470;2022-07-18T12:18:31;4.63;;;1.80;;
56381;SDS011;50261;51.150;4.470;2022-07-18T12:21:09;2.88;;;1.70;;
56381;SDS011;50261;51.150;4.470;2022-07-18T12:23:35;2.67;;;1.42;;
56381;SDS011;50261;51.150;4.470;2022-07-18T12:26:00;13.35;;;2.63;;
56381;SDS011;50261;51.150;4.470;2022-07-18T12:28:27;3.90;;;1.70;;
56381;SDS011;50261;51.150;4.470;2022-07-18T12:30:53;3.50;;;1.48;;
56381;SDS011;50261;51.150;4.470;2022-07-18T12:33:19;4.25;;;1.40;;
56381;SDS011;50261;51.150;4.470;2022-07-18T12:35:45;3.63;;;1.88;;
56381;SDS011;50261;51.150;4.470;2022-07-18T12:38:11;1.83;;;1.40;;
56381;SDS011;50261;51.150;4.470;2022-07-18T12:40:42;3.08;;;1.60;;
56381;SDS011;50261;51.150;4.470;2022-07-18T12:43:16;3.88;;;1.90;;
56381;SDS011;50261;51.150;4.470;2022-07-18T12:45:42;5.00;;;1.98;;
56381;SDS011;50261;51.150;4.470;2022-07-18T12:48:09;3.97;;;1.63;;
56381;SDS011;50261;51.150;4.470;2022-07-18T12:50:36;3.42;;;1.67;;
56381;SDS011;50261;51.150;4.470;2022-07-18T12:53:02;3.78;;;1.50;;
56381;SDS011;50261;51.150;4.470;2022-07-18T12:55:28;2.30;;;1.48;;
56381;SDS011;50261;51.150;4.470;2022-07-18T12:57:53;4.22;;;1.92;;
56381;SDS011;50261;51.150;4.470;2022-07-18T13:00:19;2.15;;;1.35;;
56381;SDS011;50261;51.150;4.470;2022-07-18T13:02:45;4.15;;;1.65;;
56381;SDS011;50261;51.150;4.470;2022-07-18T13:05:11;4.25;;;1.63;;
56381;SDS011;50261;51.150;4.470;2022-07-18T13:07:37;5.85;;;1.75;;
56381;SDS011;50261;51.150;4.470;2022-07-18T13:10:03;3.85;;;1.67;;
56381;SDS011;50261;51.150;4.470;2022-07-18T13:12:29;2.38;;;1.42;;
56381;SDS011;50261;51.150;4.470;2022-07-18T13:14:55;3.08;;;1.52;;
56381;SDS011;50261;51.150;4.470;2022-07-18T13:17:20;2.55;;;1.70;;
56381;SDS011;50261;51.150;4.470;2022-07-18T13:19:46;3.33;;;1.75;;
56381;SDS011;50261;51.150;4.470;2022-07-18T13:22:12;1.92;;;1.65;;
56381;SDS011;50261;51.150;4.470;2022-07-18T13:24:37;6.40;;;1.95;;
56381;SDS011;50261;51.150;4.470;2022-07-18T13:27:04;6.45;;;1.30;;
56381;SDS011;50261;51.150;4.470;2022-07-18T13:29:29;1.55;;;1.33;;
56381;SDS011;50261;51.150;4.470;2022-07-18T13:31:55;3.92;;;1.40;;
56381;SDS011;50261;51.150;4.470;2022-07-18T13:34:22;2.35;;;1.58;;
56381;SDS011;50261;51.150;4.470;2022-07-18T13:36:49;3.15;;;1.50;;
56381;SDS011;50261;51.150;4.470;2022-07-18T13:39:15;2.53;;;1.85;;
56381;SDS011;50261;51.150;4.470;2022-07-18T13:41:41;2.72;;;1.63;;
56381;SDS011;50261;51.150;4.470;2022-07-18T13:44:06;2.95;;;1.50;;
56381;SDS011;50261;51.150;4.470;2022-07-18T13:46:32;2.88;;;1.60;;
56381;SDS011;50261;51.150;4.470;2022-07-18T13:48:58;4.13;;;1.70;;
56381;SDS011;50261;51.150;4.470;2022-07-18T13:51:23;3.65;;;1.80;;
56381;SDS011;50261;51.150;4.470;2022-07-18T13:53:49;2.58;;;1.30;;
56381;SDS011;50261;51.150;4.470;2022-07-18T13:56:15;2.38;;;1.40;;
56381;SDS011;50261;51.150;4.470;2022-07-18T13:58:40;3.03;;;1.52;;
56381;SDS011;50261;51.150;4.470;2022-07-18T14:01:06;3.15;;;1.60;;
56381;SDS011;50261;51.150;4.470;2022-07-18T14:03:32;3.03;;;1.63;;
56381;SDS011;50261;51.150;4.470;2022-07-18T14:05:58;2.35;;;1.60;;
56381;SDS011;50261;51.150;4.470;2022-07-18T14:08:24;2.70;;;1.52;;
56381;SDS011;50261;51.150;4.470;2022-07-18T14:10:50;3.55;;;1.60;;
56381;SDS011;50261;51.150;4.470;2022-07-18T14:13:16;4.30;;;1.55;;
56381;SDS011;50261;51.150;4.470;2022-07-18T14:15:41;3.55;;;1.50;;
56381;SDS011;50261;51.150;4.470;2022-07-18T14:18:07;1.98;;;1.58;;
56381;SDS011;50261;51.150;4.470;2022-07-18T14:20:33;3.58;;;1.40;;
56381;SDS011;50261;51.150;4.470;2022-07-18T14:22:59;2.38;;;1.52;;
56381;SDS011;50261;51.150;4.470;2022-07-18T14:25:24;4.53;;;1.65;;
56381;SDS011;50261;51.150;4.470;2022-07-18T14:27:50;2.38;;;1.30;;
56381;SDS011;50261;51.150;4.470;2022-07-18T14:30:16;2.75;;;1.30;;
56381;SDS011;50261;51.150;4.470;2022-07-18T14:32:43;5.22;;;1.75;;
56381;SDS011;50261;51.150;4.470;2022-07-18T14:35:09;3.63;;;1.50;;
56381;SDS011;50261;51.150;4.470;2022-07-18T14:37:35;3.47;;;1.52;;
56381;SDS011;50261;51.150;4.470;2022-07-18T14:40:01;4.80;;;1.40;;
56381;SDS011;50261;51.150;4.470;2022-07-18T14:42:27;3.08;;;1.70;;
56381;SDS011;50261;51.150;4.470;2022-07-18T14:44:53;3.17;;;1.48;;
56381;SDS011;50261;51.150;4.470;2022-07-18T14:47:19;2.38;;;1.25;;
56381;SDS011;50261;51.150;4.470;2022-07-18T14:49:44;8.13;;;1.60;;
56381;SDS011;50261;51.150;4.470;2022-07-18T14:52:10;2.35;;;1.63;;
56381;SDS011;50261;51.150;4.470;2022-07-18T14:54:36;3.13;;;1.45;;
56381;SDS011;50261;51.150;4.470;2022-07-18T14:57:02;3.90;;;2.13;;
56381;SDS011;50261;51.150;4.470;2022-07-18T14:59:29;3.45;;;1.42;;
56381;SDS011;50261;51.150;4.470;2022-07-18T15:01:54;2.47;;;1.67;;
56381;SDS011;50261;51.150;4.470;2022-07-18T15:04:21;1.77;;;1.48;;
56381;SDS011;50261;51.150;4.470;2022-07-18T15:06:46;4.32;;;1.40;;
56381;SDS011;50261;51.150;4.470;2022-07-18T15:09:12;3.63;;;1.50;;
56381;SDS011;50261;51.150;4.470;2022-07-18T15:11:38;4.03;;;1.55;;
56381;SDS011;50261;51.150;4.470;2022-07-18T15:14:04;2.38;;;1.40;;